createdAt,value
2023-01-08T00:04:57.953Z,49
2023-01-08T00:09:57.921Z,49
2023-01-08T00:14:57.898Z,49
2023-01-08T00:19:58.121Z,49
2023-01-08T00:24:57.964Z,49
2023-01-08T00:29:58.292Z,49
2023-01-08T00:34:58.043Z,49
2023-01-08T00:39:57.987Z,49
2023-01-08T00:44:58.230Z,49
2023-01-08T00:49:58.034Z,49
2023-01-08T00:54:57.912Z,49
2023-01-08T00:59:57.743Z,49
2023-01-08T01:04:57.989Z,49
2023-01-08T01:09:58.011Z,49
2023-01-08T01:14:57.859Z,49
2023-01-08T01:19:58.152Z,49
2023-01-08T01:24:57.734Z,49
2023-01-08T01:29:58.081Z,49
2023-01-08T01:34:57.836Z,49
2023-01-08T01:39:58.063Z,49
2023-01-08T01:44:58.485Z,49
2023-01-08T01:50:00.874Z,49
2023-01-08T01:54:57.912Z,49
2023-01-08T01:59:58.832Z,49
2023-01-08T02:04:57.901Z,49
2023-01-08T02:09:57.947Z,49
2023-01-08T02:14:57.794Z,49
2023-01-08T02:20:01.246Z,49
2023-01-08T02:24:57.915Z,49
2023-01-08T02:29:57.918Z,49
2023-01-08T02:34:57.907Z,49
2023-01-08T02:40:02.072Z,49
2023-01-08T02:45:00.780Z,49
2023-01-08T02:50:02.655Z,49
2023-01-08T02:54:57.757Z,49
2023-01-08T02:59:57.971Z,49
2023-01-08T03:05:00.490Z,49
2023-01-08T03:09:57.622Z,49
2023-01-08T03:14:59.534Z,49
2023-01-08T03:19:57.965Z,49
2023-01-08T03:24:57.820Z,49
2023-01-08T03:29:58.417Z,49
2023-01-08T03:34:57.813Z,49
2023-01-08T03:40:00.097Z,49
2023-01-08T03:44:57.620Z,49
2023-01-08T03:50:00.427Z,49
2023-01-08T03:54:57.794Z,49
2023-01-08T03:59:58.183Z,49
2023-01-08T04:04:57.861Z,49
2023-01-08T04:09:57.830Z,49
2023-01-08T04:14:57.859Z,49
2023-01-08T04:19:57.555Z,49
2023-01-08T04:24:57.878Z,49
2023-01-08T04:29:57.903Z,49
2023-01-08T04:34:57.767Z,49
2023-01-08T04:39:57.805Z,49
2023-01-08T04:44:57.806Z,49
2023-01-08T04:49:57.854Z,49
2023-01-08T04:54:58.173Z,49
2023-01-08T04:59:57.596Z,49
2023-01-08T05:04:57.915Z,49
2023-01-08T05:09:57.709Z,49
2023-01-08T05:14:57.850Z,49
2023-01-08T05:19:57.756Z,49
2023-01-08T05:24:58.220Z,49
2023-01-08T05:29:57.678Z,49
2023-01-08T05:34:57.717Z,49
2023-01-08T05:39:57.707Z,49
2023-01-08T05:44:57.891Z,49
2023-01-08T05:49:57.993Z,49
2023-01-08T05:54:57.759Z,49
2023-01-08T05:59:57.984Z,49
2023-01-08T06:04:57.721Z,49
2023-01-08T06:09:57.647Z,49
2023-01-08T06:14:57.709Z,49
2023-01-08T06:19:57.808Z,49
2023-01-08T06:24:57.859Z,49
2023-01-08T06:29:57.855Z,49
2023-01-08T06:34:57.621Z,49
2023-01-08T06:39:57.743Z,49
2023-01-08T06:44:57.478Z,49
2023-01-08T06:49:57.858Z,49
2023-01-08T06:54:57.836Z,49
2023-01-08T06:59:57.501Z,49
2023-01-08T07:04:57.815Z,49
2023-01-08T07:09:57.968Z,49
2023-01-08T07:14:57.691Z,49
2023-01-08T07:19:57.732Z,55
2023-01-08T07:24:57.751Z,55
2023-01-08T07:29:57.374Z,55
2023-01-08T07:34:57.665Z,55
2023-01-08T07:39:57.735Z,55
2023-01-08T07:44:57.557Z,54
2023-01-08T07:49:57.441Z,54
2023-01-08T07:54:57.687Z,54
2023-01-08T07:59:57.797Z,54
2023-01-08T08:04:57.603Z,54
2023-01-08T08:09:57.496Z,54
2023-01-08T08:14:57.542Z,54
2023-01-08T08:19:57.713Z,53
2023-01-08T08:24:57.390Z,53
2023-01-08T08:29:57.723Z,53
2023-01-08T08:34:57.658Z,53
2023-01-08T08:39:57.583Z,53
2023-01-08T08:44:57.610Z,53
2023-01-08T08:49:57.609Z,53
2023-01-08T08:54:57.489Z,52
2023-01-08T08:59:59.754Z,52
2023-01-08T09:04:57.771Z,52
2023-01-08T09:09:57.394Z,52
2023-01-08T09:14:57.637Z,52
2023-01-08T09:19:57.527Z,52
2023-01-08T09:24:57.466Z,51
2023-01-08T09:29:57.544Z,51
2023-01-08T09:34:57.444Z,51
2023-01-08T09:40:02.244Z,51
2023-01-08T09:44:57.318Z,51
2023-01-08T09:50:00.011Z,50
2023-01-08T09:54:57.757Z,50
2023-01-08T09:59:57.907Z,50
2023-01-08T10:04:58.450Z,50
2023-01-08T10:09:58.922Z,49
2023-01-08T10:14:57.447Z,49
2023-01-08T10:19:57.572Z,49
2023-01-08T10:25:04.347Z,49
2023-01-08T10:29:57.423Z,49
2023-01-08T10:34:57.263Z,49
2023-01-08T10:40:00.747Z,49
2023-01-08T10:44:57.290Z,49
2023-01-08T10:49:58.735Z,48
2023-01-08T10:54:57.643Z,48
2023-01-08T10:59:57.448Z,48
2023-01-08T11:04:57.411Z,48
2023-01-08T11:09:57.707Z,48
2023-01-08T11:14:57.749Z,48
2023-01-08T11:20:05.701Z,48
2023-01-08T11:24:57.701Z,48
2023-01-08T11:29:57.263Z,48
2023-01-08T11:34:57.307Z,47
2023-01-08T11:39:57.516Z,90
2023-01-08T11:45:05.919Z,89.3
2023-01-08T11:49:57.494Z,88.7
2023-01-08T11:55:05.483Z,47
2023-01-08T11:59:57.336Z,89.9
2023-01-08T12:05:03.526Z,89.5
2023-01-08T12:10:00.200Z,90
2023-01-08T12:14:57.334Z,87.9
2023-01-08T12:19:57.236Z,84.6
2023-01-08T12:24:57.546Z,83.5
2023-01-08T12:29:57.155Z,82.9
2023-01-08T12:35:01.050Z,87
2023-01-08T12:39:57.236Z,86.2
2023-01-08T12:44:57.291Z,87
2023-01-08T12:50:01.483Z,87.8
2023-01-08T12:54:58.676Z,87.4
2023-01-08T13:00:00.782Z,85.5
2023-01-08T13:04:57.249Z,86.4
2023-01-08T13:10:00.690Z,85.1
2023-01-08T13:14:57.408Z,84.5
2023-01-08T13:19:57.486Z,83
2023-01-08T13:24:57.252Z,81.3
2023-01-08T13:29:57.312Z,80.7
2023-01-08T13:34:57.295Z,80.4
2023-01-08T13:39:57.377Z,80.8
2023-01-08T13:44:58.459Z,81.2
2023-01-08T13:49:57.211Z,79.7
2023-01-08T13:54:57.469Z,80.1
2023-01-08T13:59:57.206Z,79.8
2023-01-08T14:04:57.182Z,78.9
2023-01-08T14:09:57.176Z,78.4
2023-01-08T14:14:59.019Z,79.3
2023-01-08T14:19:58.555Z,79
2023-01-08T14:24:57.365Z,79
2023-01-08T14:29:57.335Z,80.4
2023-01-08T14:34:57.291Z,80.1
2023-01-08T14:39:57.302Z,80.8
2023-01-08T14:44:57.104Z,81.2
2023-01-08T14:49:57.392Z,80.7
2023-01-08T14:54:57.153Z,81.4
2023-01-08T14:59:58.749Z,81.5
2023-01-08T15:05:01.258Z,81.9
2023-01-08T15:09:57.165Z,82.5
2023-01-08T15:15:07.566Z,82.7
2023-01-08T15:19:58.366Z,83.9
2023-01-08T15:24:57.280Z,83.9
2023-01-08T15:29:57.798Z,82.7
2023-01-08T15:34:57.360Z,83.8
2023-01-08T15:39:56.972Z,83.4
2023-01-08T15:44:57.157Z,84
2023-01-08T15:49:57.051Z,83.7
2023-01-08T15:54:57.828Z,84.7
2023-01-08T15:59:57.386Z,84.3
2023-01-08T16:04:57.596Z,84.7
2023-01-08T16:09:57.213Z,84.7
2023-01-08T16:14:57.347Z,84.9
2023-01-08T16:19:57.306Z,85.6
2023-01-08T16:24:57.332Z,85.2
2023-01-08T16:29:56.977Z,86
2023-01-08T16:34:57.338Z,86.5
2023-01-08T16:39:57.308Z,86.3
2023-01-08T16:44:57.192Z,86.5
2023-01-08T16:49:57.224Z,85.9
2023-01-08T16:54:57.131Z,85.9
2023-01-08T16:59:56.996Z,85.7
2023-01-08T17:04:56.955Z,86
2023-01-08T17:09:57.093Z,85.7
2023-01-08T17:14:57.123Z,86
2023-01-08T17:19:57.424Z,86.3
2023-01-08T17:24:57.169Z,86.3
2023-01-08T17:29:57.341Z,86
2023-01-08T17:34:56.879Z,86
2023-01-08T17:39:57.416Z,87.8
2023-01-08T17:44:56.936Z,89.8
2023-01-08T17:49:56.886Z,42
2023-01-08T17:54:57.430Z,88.7
2023-01-08T17:59:56.891Z,88.6
2023-01-08T18:04:56.966Z,88.3
2023-01-08T18:09:57.289Z,88.3
2023-01-08T18:14:57.270Z,87.3
2023-01-08T18:19:57.113Z,87.3
2023-01-08T18:24:57.059Z,87
2023-01-08T18:29:57.489Z,86.2
2023-01-08T18:34:57.066Z,86.6
2023-01-08T18:39:57.091Z,87.2
2023-01-08T18:44:56.837Z,87.8
2023-01-08T18:49:57.155Z,88.8
2023-01-08T18:54:57.183Z,89.7
2023-01-08T18:59:57.252Z,89.6
2023-01-08T19:04:57.089Z,89.2
2023-01-08T19:09:57.176Z,89
2023-01-08T19:14:57.054Z,90
2023-01-08T19:19:57.672Z,43
2023-01-08T19:24:56.890Z,43
2023-01-08T19:29:57.088Z,43
2023-01-08T19:34:58.649Z,43
2023-01-08T19:39:57.332Z,89.6
2023-01-08T19:44:57.143Z,89.1
2023-01-08T19:49:57.231Z,88.8
2023-01-08T19:54:57.313Z,88.8
2023-01-08T19:59:57.028Z,88.8
2023-01-08T20:04:56.926Z,43
2023-01-08T20:09:57.358Z,89.7
2023-01-08T20:14:57.101Z,89.3
2023-01-08T20:19:57.481Z,89.9
2023-01-08T20:24:58.505Z,89.3
2023-01-08T20:29:57.066Z,89.1
2023-01-08T20:34:56.886Z,88.4
2023-01-08T20:39:57.384Z,89.3
2023-01-08T20:44:57.132Z,89.5
2023-01-08T20:49:56.775Z,43
2023-01-08T20:54:57.056Z,43
2023-01-08T20:59:56.728Z,89.5
2023-01-08T21:04:57.064Z,89.9
2023-01-08T21:09:57.028Z,44
2023-01-08T21:14:56.778Z,44
2023-01-08T21:19:56.973Z,89.8
2023-01-08T21:24:57.054Z,44
2023-01-08T21:29:57.016Z,44
2023-01-08T21:34:56.830Z,44
2023-01-08T21:39:56.870Z,44
2023-01-08T21:44:57.116Z,44
2023-01-08T21:49:56.694Z,44
2023-01-08T21:54:56.714Z,44
2023-01-08T21:59:56.991Z,44
2023-01-08T22:04:56.906Z,44
2023-01-08T22:09:56.983Z,45
2023-01-08T22:14:56.974Z,46
2023-01-08T22:19:57.029Z,46
2023-01-08T22:24:57.226Z,47
2023-01-08T22:29:57.211Z,47
2023-01-08T22:34:56.907Z,47
2023-01-08T22:39:56.668Z,48
2023-01-08T22:44:56.716Z,48
2023-01-08T22:49:56.801Z,48
2023-01-08T22:54:56.744Z,48
2023-01-08T22:59:56.891Z,49
2023-01-08T23:04:56.892Z,49
2023-01-08T23:09:56.854Z,49
2023-01-08T23:14:56.816Z,49
2023-01-08T23:19:56.609Z,49
2023-01-08T23:24:56.746Z,49
2023-01-08T23:29:56.890Z,49
2023-01-08T23:34:56.789Z,49
2023-01-08T23:39:56.824Z,49
2023-01-08T23:44:56.672Z,49
2023-01-08T23:49:56.706Z,49
2023-01-08T23:54:57.027Z,49
2023-01-08T23:59:57.047Z,49
